sensor_id;sensor_type;location;lat;lon;timestamp;pressure;altitude;pressure_sealevel;temperature
14023;BMP180;7086;48.116;11.580;2023-04-01T00:01:39;94097.00;;;12.90
14023;BMP180;7086;48.116;11.580;2023-04-01T00:04:06;94021.00;;;13.00
14023;BMP180;7086;48.116;11.580;2023-04-01T00:06:33;94088.00;;;12.90
14023;BMP180;7086;48.116;11.580;2023-04-01T00:09:01;94103.00;;;12.60
14023;BMP180;7086;48.116;11.580;2023-04-01T00:11:28;94076.00;;;13.00
14023;BMP180;7086;48.116;11.580;2023-04-01T00:13:55;94095.00;;;13.00
14023;BMP180;7086;48.116;11.580;2023-04-01T00:16:22;94074.00;;;12.90
14023;BMP180;7086;48.116;11.580;2023-04-01T00:18:50;94068.00;;;12.90
14023;BMP180;7086;48.116;11.580;2023-04-01T00:21:17;94071.00;;;12.90
14023;BMP180;7086;48.116;11.580;2023-04-01T00:23:44;94064.00;;;12.80
14023;BMP180;7086;48.116;11.580;2023-04-01T00:26:13;94058.00;;;12.80
14023;BMP180;7086;48.116;11.580;2023-04-01T00:28:40;94058.00;;;12.80
14023;BMP180;7086;48.116;11.580;2023-04-01T00:31:08;94053.00;;;12.80
14023;BMP180;7086;48.116;11.580;2023-04-01T00:33:35;94043.00;;;12.80
14023;BMP180;7086;48.116;11.580;2023-04-01T00:36:07;94058.00;;;12.80
14023;BMP180;7086;48.116;11.580;2023-04-01T00:38:35;94056.00;;;12.80
14023;BMP180;7086;48.116;11.580;2023-04-01T00:41:02;94048.00;;;12.70
14023;BMP180;7086;48.116;11.580;2023-04-01T00:43:31;94076.00;;;12.70
14023;BMP180;7086;48.116;11.580;2023-04-01T00:45:58;94046.00;;;12.70
14023;BMP180;7086;48.116;11.580;2023-04-01T00:48:29;94025.00;;;12.50
14023;BMP180;7086;48.116;11.580;2023-04-01T00:50:59;94030.00;;;12.70
14023;BMP180;7086;48.116;11.580;2023-04-01T00:53:30;94055.00;;;12.50
14023;BMP180;7086;48.116;11.580;2023-04-01T00:56:01;94061.00;;;12.60
14023;BMP180;7086;48.116;11.580;2023-04-01T00:58:33;94056.00;;;12.60
14023;BMP180;7086;48.116;11.580;2023-04-01T01:01:01;94065.00;;;12.60
14023;BMP180;7086;48.116;11.580;2023-04-01T01:03:28;94057.00;;;12.60
14023;BMP180;7086;48.116;11.580;2023-04-01T01:06:11;94045.00;;;12.60
14023;BMP180;7086;48.116;11.580;2023-04-01T01:08:55;94054.00;;;12.60
14023;BMP180;7086;48.116;11.580;2023-04-01T01:11:29;94059.00;;;12.60
14023;BMP180;7086;48.116;11.580;2023-04-01T01:14:06;94053.00;;;12.60
14023;BMP180;7086;48.116;11.580;2023-04-01T01:16:43;94041.00;;;12.60
14023;BMP180;7086;48.116;11.580;2023-04-01T01:19:26;94065.00;;;12.70
14023;BMP180;7086;48.116;11.580;2023-04-01T01:22:14;94024.00;;;12.70
14023;BMP180;7086;48.116;11.580;2023-04-01T01:25:15;94060.00;;;12.70
14023;BMP180;7086;48.116;11.580;2023-04-01T01:27:51;94059.00;;;12.70
14023;BMP180;7086;48.116;11.580;2023-04-01T01:30:35;94032.00;;;12.70
14023;BMP180;7086;48.116;11.580;2023-04-01T01:33:17;94055.00;;;12.80
14023;BMP180;7086;48.116;11.580;2023-04-01T01:35:48;94026.00;;;12.70
14023;BMP180;7086;48.116;11.580;2023-04-01T01:38:18;94041.00;;;12.80
14023;BMP180;7086;48.116;11.580;2023-04-01T01:40:49;94055.00;;;12.80
14023;BMP180;7086;48.116;11.580;2023-04-01T01:43:22;94050.00;;;12.80
14023;BMP180;7086;48.116;11.580;2023-04-01T01:45:53;94001.00;;;12.80
14023;BMP180;7086;48.116;11.580;2023-04-01T01:48:22;94039.00;;;12.90
14023;BMP180;7086;48.116;11.580;2023-04-01T01:50:51;94059.00;;;12.90
14023;BMP180;7086;48.116;11.580;2023-04-01T01:53:19;94021.00;;;12.80
14023;BMP180;7086;48.116;11.580;2023-04-01T01:55:46;94042.00;;;12.70
14023;BMP180;7086;48.116;11.580;2023-04-01T01:58:17;94045.00;;;12.80
14023;BMP180;7086;48.116;11.580;2023-04-01T02:00:49;94004.00;;;12.60
14023;BMP180;7086;48.116;11.580;2023-04-01T02:03:20;94044.00;;;12.80
14023;BMP180;7086;48.116;11.580;2023-04-01T02:05:51;94020.00;;;12.80
14023;BMP180;7086;48.116;11.580;2023-04-01T02:08:21;94053.00;;;12.80
14023;BMP180;7086;48.116;11.580;2023-04-01T02:10:55;94029.00;;;12.80
14023;BMP180;7086;48.116;11.580;2023-04-01T02:13:27;94070.00;;;12.80
14023;BMP180;7086;48.116;11.580;2023-04-01T02:15:59;94050.00;;;12.80
14023;BMP180;7086;48.116;11.580;2023-04-01T02:18:28;94057.00;;;12.80
14023;BMP180;7086;48.116;11.580;2023-04-01T02:20:58;94053.00;;;12.80
14023;BMP180;7086;48.116;11.580;2023-04-01T02:23:26;94069.00;;;12.80
14023;BMP180;7086;48.116;11.580;2023-04-01T02:25:54;94072.00;;;12.80
14023;BMP180;7086;48.116;11.580;2023-04-01T02:28:22;94050.00;;;12.80
14023;BMP180;7086;48.116;11.580;2023-04-01T02:30:49;94055.00;;;12.80
14023;BMP180;7086;48.116;11.580;2023-04-01T02:33:18;94046.00;;;12.80
14023;BMP180;7086;48.116;11.580;2023-04-01T02:35:45;94041.00;;;12.80
14023;BMP180;7086;48.116;11.580;2023-04-01T02:38:14;94024.00;;;12.70
14023;BMP180;7086;48.116;11.580;2023-04-01T02:40:46;94061.00;;;12.80
14023;BMP180;7086;48.116;11.580;2023-04-01T02:43:13;94074.00;;;12.80
14023;BMP180;7086;48.116;11.580;2023-04-01T02:45:41;94062.00;;;12.70
14023;BMP180;7086;48.116;11.580;2023-04-01T02:48:08;93999.00;;;12.80
14023;BMP180;7086;48.116;11.580;2023-04-01T02:50:35;94058.00;;;12.80
14023;BMP180;7086;48.116;11.580;2023-04-01T02:53:02;93981.00;;;12.80
14023;BMP180;7086;48.116;11.580;2023-04-01T02:55:33;94066.00;;;12.80
14023;BMP180;7086;48.116;11.580;2023-04-01T02:58:00;94067.00;;;12.80
14023;BMP180;7086;48.116;11.580;2023-04-01T03:00:27;94067.00;;;12.80
14023;BMP180;7086;48.116;11.580;2023-04-01T03:02:53;94041.00;;;12.80
14023;BMP180;7086;48.116;11.580;2023-04-01T03:05:21;94066.00;;;12.80
14023;BMP180;7086;48.116;11.580;2023-04-01T03:07:48;94056.00;;;12.80
14023;BMP180;7086;48.116;11.580;2023-04-01T03:10:15;94071.00;;;12.80
14023;BMP180;7086;48.116;11.580;2023-04-01T03:12:43;94076.00;;;12.80
14023;BMP180;7086;48.116;11.580;2023-04-01T03:15:11;94077.00;;;12.80
14023;BMP180;7086;48.116;11.580;2023-04-01T03:17:40;94082.00;;;12.80
14023;BMP180;7086;48.116;11.580;2023-04-01T03:20:08;94077.00;;;12.80
14023;BMP180;7086;48.116;11.580;2023-04-01T03:22:36;94071.00;;;12.70
14023;BMP180;7086;48.116;11.580;2023-04-01T03:25:04;94073.00;;;12.70
14023;BMP180;7086;48.116;11.580;2023-04-01T03:27:33;94081.00;;;12.70
14023;BMP180;7086;48.116;11.580;2023-04-01T03:30:02;94081.00;;;12.70
14023;BMP180;7086;48.116;11.580;2023-04-01T03:32:29;94072.00;;;12.70
14023;BMP180;7086;48.116;11.580;2023-04-01T03:34:56;94067.00;;;12.70
14023;BMP180;7086;48.116;11.580;2023-04-01T03:37:24;94077.00;;;12.60
14023;BMP180;7086;48.116;11.580;2023-04-01T03:39:51;94086.00;;;12.60
14023;BMP180;7086;48.116;11.580;2023-04-01T03:42:18;94080.00;;;12.60
14023;BMP180;7086;48.116;11.580;2023-04-01T03:44:45;94114.00;;;12.60
14023;BMP180;7086;48.116;11.580;2023-04-01T03:47:13;94015.00;;;12.50
14023;BMP180;7086;48.116;11.580;2023-04-01T03:49:46;94054.00;;;12.50
14023;BMP180;7086;48.116;11.580;2023-04-01T03:52:13;94083.00;;;12.40
14023;BMP180;7086;48.116;11.580;2023-04-01T03:54:40;94082.00;;;12.40
14023;BMP180;7086;48.116;11.580;2023-04-01T03:57:07;94090.00;;;12.40
14023;BMP180;7086;48.116;11.580;2023-04-01T03:59:34;94098.00;;;12.40
14023;BMP180;7086;48.116;11.580;2023-04-01T04:02:01;94101.00;;;12.40
14023;BMP180;7086;48.116;11.580;2023-04-01T04:04:29;94098.00;;;12.40
14023;BMP180;7086;48.116;11.580;2023-04-01T04:06:56;94103.00;;;12.30
14023;BMP180;7086;48.116;11.580;2023-04-01T04:09:23;94070.00;;;12.30
14023;BMP180;7086;48.116;11.580;2023-04-01T04:11:50;94113.00;;;12.30
14023;BMP180;7086;48.116;11.580;2023-04-01T04:14:17;94075.00;;;12.30
14023;BMP180;7086;48.116;11.580;2023-04-01T04:16:44;94073.00;;;12.30
14023;BMP180;7086;48.116;11.580;2023-04-01T04:19:11;94106.00;;;12.20
14023;BMP180;7086;48.116;11.580;2023-04-01T04:21:41;94085.00;;;11.90
14023;BMP180;7086;48.116;11.580;2023-04-01T04:24:08;94102.00;;;12.30
14023;BMP180;7086;48.116;11.580;2023-04-01T04:26:36;94029.00;;;12.30
14023;BMP180;7086;48.116;11.580;2023-04-01T04:29:03;94103.00;;;12.30
14023;BMP180;7086;48.116;11.580;2023-04-01T04:31:30;94115.00;;;12.30
14023;BMP180;7086;48.116;11.580;2023-04-01T04:33:59;94082.00;;;12.00
14023;BMP180;7086;48.116;11.580;2023-04-01T04:36:26;94056.00;;;12.30
14023;BMP180;7086;48.116;11.580;2023-04-01T04:38:54;94053.00;;;12.30
14023;BMP180;7086;48.116;11.580;2023-04-01T04:41:21;94103.00;;;12.30
14023;BMP180;7086;48.116;11.580;2023-04-01T04:43:49;94117.00;;;12.20
14023;BMP180;7086;48.116;11.580;2023-04-01T04:46:18;94130.00;;;12.20
14023;BMP180;7086;48.116;11.580;2023-04-01T04:48:45;94047.00;;;12.30
14023;BMP180;7086;48.116;11.580;2023-04-01T04:51:14;94149.00;;;12.40
14023;BMP180;7086;48.116;11.580;2023-04-01T04:53:41;94063.00;;;12.40
14023;BMP180;7086;48.116;11.580;2023-04-01T04:56:10;94003.00;;;12.40
14023;BMP180;7086;48.116;11.580;2023-04-01T04:58:37;94134.00;;;12.40
14023;BMP180;7086;48.116;11.580;2023-04-01T05:01:09;94087.00;;;12.40
14023;BMP180;7086;48.116;11.580;2023-04-01T05:03:37;94119.00;;;12.40
14023;BMP180;7086;48.116;11.580;2023-04-01T05:06:05;94127.00;;;12.40
14023;BMP180;7086;48.116;11.580;2023-04-01T05:08:32;94122.00;;;12.50
14023;BMP180;7086;48.116;11.580;2023-04-01T05:10:59;94130.00;;;12.40
14023;BMP180;7086;48.116;11.580;2023-04-01T05:13:28;94103.00;;;12.50
14023;BMP180;7086;48.116;11.580;2023-04-01T05:15:55;94133.00;;;12.60
14023;BMP180;7086;48.116;11.580;2023-04-01T05:18:22;94115.00;;;12.60
14023;BMP180;7086;48.116;11.580;2023-04-01T05:20:50;94122.00;;;12.60
14023;BMP180;7086;48.116;11.580;2023-04-01T05:23:17;94096.00;;;12.70
14023;BMP180;7086;48.116;11.580;2023-04-01T05:25:45;94089.00;;;12.70
14023;BMP180;7086;48.116;11.580;2023-04-01T05:28:12;94118.00;;;12.70
14023;BMP180;7086;48.116;11.580;2023-04-01T05:30:41;94127.00;;;12.80
14023;BMP180;7086;48.116;11.580;2023-04-01T05:33:09;94120.00;;;12.80
14023;BMP180;7086;48.116;11.580;2023-04-01T05:35:36;94095.00;;;12.80
14023;BMP180;7086;48.116;11.580;2023-04-01T05:38:04;94110.00;;;12.80
14023;BMP180;7086;48.116;11.580;2023-04-01T05:40:31;94086.00;;;12.90
14023;BMP180;7086;48.116;11.580;2023-04-01T05:42:59;94099.00;;;12.80
14023;BMP180;7086;48.116;11.580;2023-04-01T05:45:26;94109.00;;;13.00
14023;BMP180;7086;48.116;11.580;2023-04-01T05:47:54;94107.00;;;13.00
14023;BMP180;7086;48.116;11.580;2023-04-01T05:50:21;94127.00;;;13.10
14023;BMP180;7086;48.116;11.580;2023-04-01T05:52:48;94114.00;;;13.10
14023;BMP180;7086;48.116;11.580;2023-04-01T05:55:15;94096.00;;;13.10
14023;BMP180;7086;48.116;11.580;2023-04-01T05:57:42;94119.00;;;13.20
14023;BMP180;7086;48.116;11.580;2023-04-01T06:00:11;94120.00;;;13.30
14023;BMP180;7086;48.116;11.580;2023-04-01T06:02:39;94118.00;;;13.30
14023;BMP180;7086;48.116;11.580;2023-04-01T06:05:14;94126.00;;;13.20
14023;BMP180;7086;48.116;11.580;2023-04-01T06:07:42;94052.00;;;13.40
14023;BMP180;7086;48.116;11.580;2023-04-01T06:10:13;94093.00;;;13.50
14023;BMP180;7086;48.116;11.580;2023-04-01T06:12:47;94112.00;;;13.50
14023;BMP180;7086;48.116;11.580;2023-04-01T06:15:23;94132.00;;;13.60
14023;BMP180;7086;48.116;11.580;2023-04-01T06:18:09;94119.00;;;13.50
14023;BMP180;7086;48.116;11.580;2023-04-01T06:20:49;94124.00;;;13.60
14023;BMP180;7086;48.116;11.580;2023-04-01T06:26:19;94118.00;;;13.60
14023;BMP180;7086;48.116;11.580;2023-04-01T06:29:05;94137.00;;;13.60
14023;BMP180;7086;48.116;11.580;2023-04-01T06:31:53;94125.00;;;13.60
14023;BMP180;7086;48.116;11.580;2023-04-01T06:34:46;94115.00;;;13.70
14023;BMP180;7086;48.116;11.580;2023-04-01T06:37:40;94124.00;;;13.70
14023;BMP180;7086;48.116;11.580;2023-04-01T06:43:17;94126.00;;;13.70
14023;BMP180;7086;48.116;11.580;2023-04-01T06:45:51;94118.00;;;13.80
14023;BMP180;7086;48.116;11.580;2023-04-01T06:48:41;94124.00;;;13.90
14023;BMP180;7086;48.116;11.580;2023-04-01T06:51:20;94135.00;;;13.90
14023;BMP180;7086;48.116;11.580;2023-04-01T06:53:54;94108.00;;;14.00
14023;BMP180;7086;48.116;11.580;2023-04-01T06:56:25;94131.00;;;14.00
14023;BMP180;7086;48.116;11.580;2023-04-01T06:58:55;94053.00;;;14.10
14023;BMP180;7086;48.116;11.580;2023-04-01T07:01:26;94110.00;;;14.10
14023;BMP180;7086;48.116;11.580;2023-04-01T07:03:57;94157.00;;;14.20
14023;BMP180;7086;48.116;11.580;2023-04-01T07:06:28;94136.00;;;14.40
14023;BMP180;7086;48.116;11.580;2023-04-01T07:09:00;94132.00;;;14.50
14023;BMP180;7086;48.116;11.580;2023-04-01T07:11:31;94111.00;;;14.70
14023;BMP180;7086;48.116;11.580;2023-04-01T07:14:01;94155.00;;;14.80
14023;BMP180;7086;48.116;11.580;2023-04-01T07:16:31;94140.00;;;14.80
14023;BMP180;7086;48.116;11.580;2023-04-01T07:19:02;94140.00;;;14.80
14023;BMP180;7086;48.116;11.580;2023-04-01T07:21:33;94139.00;;;15.00
14023;BMP180;7086;48.116;11.580;2023-04-01T07:24:06;94138.00;;;15.00
14023;BMP180;7086;48.116;11.580;2023-04-01T07:26:35;94130.00;;;15.00
14023;BMP180;7086;48.116;11.580;2023-04-01T07:29:05;94128.00;;;15.10
14023;BMP180;7086;48.116;11.580;2023-04-01T07:31:49;94103.00;;;15.30
14023;BMP180;7086;48.116;11.580;2023-04-01T07:34:23;94128.00;;;15.50
14023;BMP180;7086;48.116;11.580;2023-04-01T07:36:55;94129.00;;;15.80
14023;BMP180;7086;48.116;11.580;2023-04-01T07:39:35;94151.00;;;16.10
14023;BMP180;7086;48.116;11.580;2023-04-01T07:42:10;94129.00;;;16.50
14023;BMP180;7086;48.116;11.580;2023-04-01T07:44:45;94153.00;;;17.00
14023;BMP180;7086;48.116;11.580;2023-04-01T07:47:27;94132.00;;;17.40
14023;BMP180;7086;48.116;11.580;2023-04-01T07:50:04;94125.00;;;17.90
14023;BMP180;7086;48.116;11.580;2023-04-01T07:52:40;94144.00;;;18.30
14023;BMP180;7086;48.116;11.580;2023-04-01T07:55:14;94136.00;;;18.60
14023;BMP180;7086;48.116;11.580;2023-04-01T07:57:49;94130.00;;;18.90
14023;BMP180;7086;48.116;11.580;2023-04-01T08:00:20;94142.00;;;19.30
14023;BMP180;7086;48.116;11.580;2023-04-01T08:03:02;94131.00;;;19.50
14023;BMP180;7086;48.116;11.580;2023-04-01T08:05:39;94150.00;;;19.60
14023;BMP180;7086;48.116;11.580;2023-04-01T08:08:12;94142.00;;;19.60
14023;BMP180;7086;48.116;11.580;2023-04-01T08:10:47;94140.00;;;19.60
14023;BMP180;7086;48.116;11.580;2023-04-01T08:13:24;94115.00;;;19.40
14023;BMP180;7086;48.116;11.580;2023-04-01T08:15:57;94136.00;;;19.20
14023;BMP180;7086;48.116;11.580;2023-04-01T08:18:38;94159.00;;;19.00
14023;BMP180;7086;48.116;11.580;2023-04-01T08:21:12;94139.00;;;18.70
14023;BMP180;7086;48.116;11.580;2023-04-01T08:23:43;94153.00;;;18.50
14023;BMP180;7086;48.116;11.580;2023-04-01T08:26:17;94134.00;;;18.40
14023;BMP180;7086;48.116;11.580;2023-04-01T08:28:52;94113.00;;;18.30
14023;BMP180;7086;48.116;11.580;2023-04-01T08:31:25;94139.00;;;18.30
14023;BMP180;7086;48.116;11.580;2023-04-01T08:33:58;94142.00;;;18.30
14023;BMP180;7086;48.116;11.580;2023-04-01T08:36:29;94149.00;;;18.40
14023;BMP180;7086;48.116;11.580;2023-04-01T08:39:02;94145.00;;;18.70
14023;BMP180;7086;48.116;11.580;2023-04-01T08:45:17;94141.00;;;19.00
14023;BMP180;7086;48.116;11.580;2023-04-01T08:48:01;94125.00;;;19.10
14023;BMP180;7086;48.116;11.580;2023-04-01T08:53:57;94128.00;;;19.00
14023;BMP180;7086;48.116;11.580;2023-04-01T08:56:31;94126.00;;;19.20
14023;BMP180;7086;48.116;11.580;2023-04-01T08:59:13;94149.00;;;19.20
14023;BMP180;7086;48.116;11.580;2023-04-01T09:05:29;94133.00;;;19.30
14023;BMP180;7086;48.116;11.580;2023-04-01T09:08:11;94111.00;;;19.30
14023;BMP180;7086;48.116;11.580;2023-04-01T09:11:08;94126.00;;;19.40
14023;BMP180;7086;48.116;11.580;2023-04-01T09:17:01;94121.00;;;19.90
14023;BMP180;7086;48.116;11.580;2023-04-01T09:19:48;94126.00;;;20.20
14023;BMP180;7086;48.116;11.580;2023-04-01T09:22:28;94093.00;;;20.40
14023;BMP180;7086;48.116;11.580;2023-04-01T09:25:31;94110.00;;;20.70
14023;BMP180;7086;48.116;11.580;2023-04-01T09:28:10;94125.00;;;20.90
14023;BMP180;7086;48.116;11.580;2023-04-01T09:31:06;94129.00;;;20.80
14023;BMP180;7086;48.116;11.580;2023-04-01T09:34:04;94119.00;;;20.70
14023;BMP180;7086;48.116;11.580;2023-04-01T09:36:43;94099.00;;;20.50
14023;BMP180;7086;48.116;11.580;2023-04-01T09:39:35;94109.00;;;20.30
14023;BMP180;7086;48.116;11.580;2023-04-01T09:42:26;94100.00;;;20.10
14023;BMP180;7086;48.116;11.580;2023-04-01T09:45:00;94109.00;;;19.90
14023;BMP180;7086;48.116;11.580;2023-04-01T09:47:41;94101.00;;;19.90
14023;BMP180;7086;48.116;11.580;2023-04-01T09:50:35;94096.00;;;19.80
14023;BMP180;7086;48.116;11.580;2023-04-01T09:53:24;94100.00;;;19.90
14023;BMP180;7086;48.116;11.580;2023-04-01T09:56:19;94089.00;;;20.10
14023;BMP180;7086;48.116;11.580;2023-04-01T10:02:37;94096.00;;;20.80
14023;BMP180;7086;48.116;11.580;2023-04-01T10:05:30;94087.00;;;21.00
14023;BMP180;7086;48.116;11.580;2023-04-01T10:11:25;94059.00;;;20.90
14023;BMP180;7086;48.116;11.580;2023-04-01T10:14:25;94084.00;;;20.60
14023;BMP180;7086;48.116;11.580;2023-04-01T10:17:28;94083.00;;;20.40
14023;BMP180;7086;48.116;11.580;2023-04-01T10:20:25;94088.00;;;20.10
14023;BMP180;7086;48.116;11.580;2023-04-01T10:26:01;94092.00;;;19.70
14023;BMP180;7086;48.116;11.580;2023-04-01T10:28:56;94052.00;;;19.50
14023;BMP180;7086;48.116;11.580;2023-04-01T10:31:47;94090.00;;;19.30
14023;BMP180;7086;48.116;11.580;2023-04-01T10:37:56;94095.00;;;19.10
14023;BMP180;7086;48.116;11.580;2023-04-01T10:40:51;94087.00;;;19.10
14023;BMP180;7086;48.116;11.580;2023-04-01T10:46:41;94040.00;;;18.90
14023;BMP180;7086;48.116;11.580;2023-04-01T10:49:37;94008.00;;;18.80
14023;BMP180;7086;48.116;11.580;2023-04-01T10:52:46;94055.00;;;18.70
14023;BMP180;7086;48.116;11.580;2023-04-01T10:55:37;94090.00;;;18.30
14023;BMP180;7086;48.116;11.580;2023-04-01T10:58:39;94096.00;;;18.50
14023;BMP180;7086;48.116;11.580;2023-04-01T11:08:01;94114.00;;;18.10
14023;BMP180;7086;48.116;11.580;2023-04-01T11:11:02;94073.00;;;18.00
14023;BMP180;7086;48.116;11.580;2023-04-01T11:17:21;94124.00;;;17.80
14023;BMP180;7086;48.116;11.580;2023-04-01T11:20:19;94098.00;;;17.80
14023;BMP180;7086;48.116;11.580;2023-04-01T11:23:03;94112.00;;;17.90
14023;BMP180;7086;48.116;11.580;2023-04-01T11:25:51;94112.00;;;17.90
14023;BMP180;7086;48.116;11.580;2023-04-01T11:28:55;94102.00;;;17.90
14023;BMP180;7086;48.116;11.580;2023-04-01T11:31:39;94123.00;;;18.00
14023;BMP180;7086;48.116;11.580;2023-04-01T11:34:20;94130.00;;;18.10
14023;BMP180;7086;48.116;11.580;2023-04-01T11:36:59;94130.00;;;18.10
14023;BMP180;7086;48.116;11.580;2023-04-01T11:39:36;94124.00;;;18.10
14023;BMP180;7086;48.116;11.580;2023-04-01T11:42:17;94129.00;;;18.00
14023;BMP180;7086;48.116;11.580;2023-04-01T11:44:53;94125.00;;;18.00
14023;BMP180;7086;48.116;11.580;2023-04-01T11:47:50;94126.00;;;17.80
14023;BMP180;7086;48.116;11.580;2023-04-01T11:50:24;94142.00;;;17.90
14023;BMP180;7086;48.116;11.580;2023-04-01T11:53:15;94146.00;;;17.80
14023;BMP180;7086;48.116;11.580;2023-04-01T11:56:09;94189.00;;;17.70
14023;BMP180;7086;48.116;11.580;2023-04-01T11:59:13;94170.00;;;17.50
14023;BMP180;7086;48.116;11.580;2023-04-01T12:01:52;94143.00;;;17.30
14023;BMP180;7086;48.116;11.580;2023-04-01T12:07:45;94147.00;;;16.70
14023;BMP180;7086;48.116;11.580;2023-04-01T12:10:18;94171.00;;;16.50
14023;BMP180;7086;48.116;11.580;2023-04-01T12:12:57;94167.00;;;16.20
14023;BMP180;7086;48.116;11.580;2023-04-01T12:15:31;94167.00;;;15.90
14023;BMP180;7086;48.116;11.580;2023-04-01T12:18:07;94184.00;;;15.90
14023;BMP180;7086;48.116;11.580;2023-04-01T12:20:45;94166.00;;;15.70
14023;BMP180;7086;48.116;11.580;2023-04-01T12:23:35;94162.00;;;15.60
14023;BMP180;7086;48.116;11.580;2023-04-01T12:26:26;94166.00;;;15.40
14023;BMP180;7086;48.116;11.580;2023-04-01T12:29:09;94166.00;;;15.30
14023;BMP180;7086;48.116;11.580;2023-04-01T12:31:47;94205.00;;;15.20
14023;BMP180;7086;48.116;11.580;2023-04-01T12:34:43;94159.00;;;15.10
14023;BMP180;7086;48.116;11.580;2023-04-01T12:37:21;94162.00;;;15.00
14023;BMP180;7086;48.116;11.580;2023-04-01T12:40:02;94140.00;;;14.90
14023;BMP180;7086;48.116;11.580;2023-04-01T12:42:55;94156.00;;;14.80
14023;BMP180;7086;48.116;11.580;2023-04-01T12:45:30;94186.00;;;14.80
14023;BMP180;7086;48.116;11.580;2023-04-01T12:48:23;94156.00;;;14.70
14023;BMP180;7086;48.116;11.580;2023-04-01T12:51:17;94148.00;;;14.50
14023;BMP180;7086;48.116;11.580;2023-04-01T12:56:57;94170.00;;;14.60
14023;BMP180;7086;48.116;11.580;2023-04-01T12:59:44;94168.00;;;14.40
14023;BMP180;7086;48.116;11.580;2023-04-01T13:02:26;94155.00;;;14.50
14023;BMP180;7086;48.116;11.580;2023-04-01T13:05:20;94160.00;;;14.50
14023;BMP180;7086;48.116;11.580;2023-04-01T13:08:20;94165.00;;;14.50
14023;BMP180;7086;48.116;11.580;2023-04-01T13:11:07;94154.00;;;14.40
14023;BMP180;7086;48.116;11.580;2023-04-01T13:14:09;94142.00;;;14.40
14023;BMP180;7086;48.116;11.580;2023-04-01T13:16:46;94156.00;;;14.30
14023;BMP180;7086;48.116;11.580;2023-04-01T13:19:20;94158.00;;;14.20
14023;BMP180;7086;48.116;11.580;2023-04-01T13:21:54;94183.00;;;14.20
14023;BMP180;7086;48.116;11.580;2023-04-01T13:24:31;94189.00;;;14.20
14023;BMP180;7086;48.116;11.580;2023-04-01T13:27:07;94138.00;;;14.20
14023;BMP180;7086;48.116;11.580;2023-04-01T13:29:38;94135.00;;;14.10
14023;BMP180;7086;48.116;11.580;2023-04-01T13:32:19;94198.00;;;14.00
14023;BMP180;7086;48.116;11.580;2023-04-01T13:35:03;94152.00;;;14.10
14023;BMP180;7086;48.116;11.580;2023-04-01T13:37:42;94182.00;;;14.10
14023;BMP180;7086;48.116;11.580;2023-04-01T13:40:23;94195.00;;;14.00
14023;BMP180;7086;48.116;11.580;2023-04-01T13:42:55;94190.00;;;14.10
14023;BMP180;7086;48.116;11.580;2023-04-01T13:45:26;94195.00;;;14.10
14023;BMP180;7086;48.116;11.580;2023-04-01T13:54:03;94187.00;;;14.00
14023;BMP180;7086;48.116;11.580;2023-04-01T13:56:42;94177.00;;;14.10
14023;BMP180;7086;48.116;11.580;2023-04-01T13:59:36;94186.00;;;14.10
14023;BMP180;7086;48.116;11.580;2023-04-01T14:02:24;94155.00;;;14.10
14023;BMP180;7086;48.116;11.580;2023-04-01T14:05:09;94200.00;;;14.20
14023;BMP180;7086;48.116;11.580;2023-04-01T14:07:50;94196.00;;;14.30
14023;BMP180;7086;48.116;11.580;2023-04-01T14:10:24;94204.00;;;14.20
14023;BMP180;7086;48.116;11.580;2023-04-01T14:12:58;94179.00;;;14.40
14023;BMP180;7086;48.116;11.580;2023-04-01T14:15:36;94188.00;;;14.40
14023;BMP180;7086;48.116;11.580;2023-04-01T14:18:22;94172.00;;;14.40
14023;BMP180;7086;48.116;11.580;2023-04-01T14:21:05;94158.00;;;14.40
14023;BMP180;7086;48.116;11.580;2023-04-01T14:23:45;94166.00;;;14.30
14023;BMP180;7086;48.116;11.580;2023-04-01T14:26:34;94187.00;;;14.30
14023;BMP180;7086;48.116;11.580;2023-04-01T14:29:09;94178.00;;;14.30
14023;BMP180;7086;48.116;11.580;2023-04-01T14:31:52;94188.00;;;14.30
14023;BMP180;7086;48.116;11.580;2023-04-01T14:34:37;94194.00;;;14.30
14023;BMP180;7086;48.116;11.580;2023-04-01T14:37:36;94180.00;;;14.30
14023;BMP180;7086;48.116;11.580;2023-04-01T14:40:22;94191.00;;;14.30
14023;BMP180;7086;48.116;11.580;2023-04-01T14:43:21;94194.00;;;14.30
14023;BMP180;7086;48.116;11.580;2023-04-01T14:49:15;94180.00;;;14.40
14023;BMP180;7086;48.116;11.580;2023-04-01T14:51:45;94164.00;;;14.40
14023;BMP180;7086;48.116;11.580;2023-04-01T14:54:14;94195.00;;;14.50
14023;BMP180;7086;48.116;11.580;2023-04-01T14:56:50;94178.00;;;14.50
14023;BMP180;7086;48.116;11.580;2023-04-01T14:59:26;94199.00;;;14.50
14023;BMP180;7086;48.116;11.580;2023-04-01T15:01:58;94189.00;;;14.40
14023;BMP180;7086;48.116;11.580;2023-04-01T15:04:41;94188.00;;;14.50
14023;BMP180;7086;48.116;11.580;2023-04-01T15:07:26;94179.00;;;14.50
14023;BMP180;7086;48.116;11.580;2023-04-01T15:10:01;94165.00;;;14.50
14023;BMP180;7086;48.116;11.580;2023-04-01T15:12:35;94190.00;;;14.50
14023;BMP180;7086;48.116;11.580;2023-04-01T15:15:27;94185.00;;;14.40
14023;BMP180;7086;48.116;11.580;2023-04-01T15:18:08;94190.00;;;14.40
14023;BMP180;7086;48.116;11.580;2023-04-01T15:20:49;94163.00;;;14.40
14023;BMP180;7086;48.116;11.580;2023-04-01T15:23:33;94188.00;;;14.40
14023;BMP180;7086;48.116;11.580;2023-04-01T15:26:16;94180.00;;;14.20
14023;BMP180;7086;48.116;11.580;2023-04-01T15:29:02;94191.00;;;14.30
14023;BMP180;7086;48.116;11.580;2023-04-01T15:31:38;94193.00;;;14.30
14023;BMP180;7086;48.116;11.580;2023-04-01T15:34:19;94219.00;;;14.40
14023;BMP180;7086;48.116;11.580;2023-04-01T15:36:55;94215.00;;;14.40
14023;BMP180;7086;48.116;11.580;2023-04-01T15:39:30;94211.00;;;14.50
14023;BMP180;7086;48.116;11.580;2023-04-01T15:42:15;94133.00;;;14.60
14023;BMP180;7086;48.116;11.580;2023-04-01T15:44:58;94229.00;;;14.60
14023;BMP180;7086;48.116;11.580;2023-04-01T15:47:36;94172.00;;;14.80
14023;BMP180;7086;48.116;11.580;2023-04-01T15:56:06;94209.00;;;14.80
14023;BMP180;7086;48.116;11.580;2023-04-01T15:58:51;94210.00;;;15.00
14023;BMP180;7086;48.116;11.580;2023-04-01T16:01:44;94210.00;;;15.00
14023;BMP180;7086;48.116;11.580;2023-04-01T16:04:46;94208.00;;;15.00
14023;BMP180;7086;48.116;11.580;2023-04-01T16:07:36;94211.00;;;15.10
14023;BMP180;7086;48.116;11.580;2023-04-01T16:10:16;94214.00;;;15.10